Time;durP1;ratioP1;P1;durP2;ratioP2;P2;SDS_P1;SDS_P2;PMS_P1;PMS_P2;Temp;Humidity;BMP_temperature;BMP_pressure;BME280_temperature;BME280_humidity;BME280_pressure;Samples;Min_cycle;Max_cycle;Signal;HPM_P1;HPM_P2
2021/04/13 00:02:28;;;;;;;4.22;3.20;;;4.30;1.00;;;;;;5039527;28;20238;-82
2021/04/13 00:05:03;;;;;;;3.60;3.30;;;4.30;1.00;;;;;;5013457;28;20227;-81
2021/04/13 00:07:31;;;;;;;8.32;3.95;;;4.30;1.00;;;;;;5018094;28;20222;-80
2021/04/13 00:10:06;;;;;;;2.85;2.55;;;4.20;1.00;;;;;;5043016;28;20226;-81
2021/04/13 00:12:38;;;;;;;3.00;2.70;;;4.30;1.00;;;;;;5020682;28;20278;-82
2021/04/13 00:15:13;;;;;;;3.95;3.13;;;4.30;1.00;;;;;;5004032;28;20235;-79
2021/04/13 00:17:44;;;;;;;3.75;3.13;;;4.20;1.00;;;;;;5016845;28;20227;-80
2021/04/13 00:20:18;;;;;;;2.85;2.55;;;4.20;1.00;;;;;;5003736;28;20222;-80
2021/04/13 00:22:49;;;;;;;5.68;2.50;;;4.20;1.00;;;;;;5021274;28;20223;-80
2021/04/13 00:25:25;;;;;;;3.67;2.78;;;4.10;1.00;;;;;;5011146;28;20227;-80
2021/04/13 00:27:52;;;;;;;2.65;2.45;;;4.10;1.00;;;;;;5022512;28;20218;-81
2021/04/13 00:30:22;;;;;;;3.15;2.58;;;4.10;1.00;;;;;;5005432;28;20211;-82
2021/04/13 00:32:58;;;;;;;4.10;2.60;;;4.00;1.00;;;;;;5033084;28;20231;-81
2021/04/13 00:35:32;;;;;;;3.58;2.55;;;4.00;1.00;;;;;;5006399;28;21083;-80
2021/04/13 00:38:31;;;;;;;3.17;2.78;;;4.00;1.00;;;;;;5014273;28;20544;-80
2021/04/13 00:41:12;;;;;;;3.30;3.00;;;4.00;1.00;;;;;;5001286;28;20242;-82
2021/04/13 00:43:42;;;;;;;3.78;3.03;;;4.00;1.00;;;;;;5016075;28;20360;-81
2021/04/13 00:46:15;;;;;;;4.85;2.80;;;4.00;1.00;;;;;;5043266;28;20234;-80
2021/04/13 00:48:44;;;;;;;3.95;3.10;;;4.00;1.00;;;;;;5006193;28;20694;-82
2021/04/13 00:51:25;;;;;;;3.22;2.92;;;4.00;1.00;;;;;;5003064;28;20233;-82
2021/04/13 00:53:56;;;;;;;3.55;3.10;;;4.00;1.00;;;;;;5013245;28;20223;-82
2021/04/13 00:56:26;;;;;;;5.88;3.00;;;4.00;1.00;;;;;;4993980;28;20227;-83
2021/04/13 00:59:01;;;;;;;2.80;2.60;;;4.00;1.00;;;;;;5008555;28;20235;-83
2021/04/13 01:01:33;;;;;;;3.00;2.78;;;3.90;1.00;;;;;;5006580;28;20749;-83
2021/04/13 01:04:10;;;;;;;3.50;2.60;;;3.90;1.00;;;;;;5006925;28;20227;-83
2021/04/13 01:06:57;;;;;;;5.18;2.75;;;3.90;1.00;;;;;;4987612;28;20235;-83
2021/04/13 01:09:26;;;;;;;3.00;2.70;;;3.90;1.00;;;;;;4999552;28;20227;-83
2021/04/13 01:12:04;;;;;;;3.88;3.45;;;3.90;1.00;;;;;;4992890;28;20229;-82
2021/04/13 01:14:35;;;;;;;3.15;2.70;;;3.90;1.00;;;;;;5036004;28;20734;-83
2021/04/13 01:17:08;;;;;;;3.10;2.78;;;3.90;1.00;;;;;;5013342;28;20227;-82
2021/04/13 01:19:50;;;;;;;3.75;3.35;;;3.90;1.00;;;;;;5004960;28;20235;-83
2021/04/13 01:22:27;;;;;;;4.10;2.88;;;3.90;1.00;;;;;;4999011;28;20227;-84
2021/04/13 01:24:55;;;;;;;3.53;2.50;;;3.90;1.00;;;;;;4997221;28;20238;-84
2021/04/13 01:27:27;;;;;;;3.80;3.40;;;3.90;1.00;;;;;;4986369;28;20234;-82
2021/04/13 01:29:56;;;;;;;3.85;3.03;;;3.90;1.00;;;;;;5010510;28;20228;-84
2021/04/13 01:32:25;;;;;;;3.85;3.45;;;3.90;1.00;;;;;;4997672;28;20235;-83
2021/04/13 01:35:05;;;;;;;3.30;3.00;;;3.90;1.00;;;;;;5042070;28;20281;-84
2021/04/13 01:37:45;;;;;;;3.97;3.25;;;3.90;1.00;;;;;;5044183;28;20226;-82
2021/04/13 01:40:26;;;;;;;4.72;3.92;;;3.80;1.00;;;;;;5021537;28;20879;-82
2021/04/13 01:42:55;;;;;;;4.05;3.75;;;3.80;1.00;;;;;;5011675;28;20322;-82
2021/04/13 01:45:25;;;;;;;4.95;3.58;;;3.80;1.00;;;;;;5057931;28;20257;-82
2021/04/13 01:47:57;;;;;;;4.18;3.53;;;3.80;1.00;;;;;;5018928;28;20238;-82
2021/04/13 01:50:32;;;;;;;4.43;3.70;;;3.70;1.00;;;;;;5019491;28;20222;-83
2021/04/13 01:53:08;;;;;;;4.70;4.30;;;3.70;1.00;;;;;;5017513;28;20226;-83
2021/04/13 01:55:36;;;;;;;5.38;4.88;;;3.60;1.00;;;;;;4997917;28;20269;-84
2021/04/13 01:58:15;;;;;;;4.03;3.65;;;3.70;1.00;;;;;;5032318;28;20265;-83
2021/04/13 02:00:46;;;;;;;4.28;3.90;;;3.60;1.00;;;;;;4985305;28;20274;-84
2021/04/13 02:03:16;;;;;;;6.18;4.68;;;3.60;1.00;;;;;;5001005;28;21055;-82
2021/04/13 02:05:51;;;;;;;5.00;3.60;;;3.60;1.00;;;;;;4979119;28;20289;-82
2021/04/13 02:08:30;;;;;;;5.63;5.13;;;3.60;1.00;;;;;;5013484;28;20269;-83
2021/04/13 02:11:04;;;;;;;4.75;4.25;;;3.60;1.00;;;;;;5019918;28;20235;-81
2021/04/13 02:13:34;;;;;;;5.18;4.68;;;3.50;1.00;;;;;;4998591;28;20266;-83
2021/04/13 02:16:06;;;;;;;5.60;5.10;;;3.50;1.00;;;;;;4998914;28;20227;-83
2021/04/13 02:18:38;;;;;;;5.30;4.68;;;3.50;1.00;;;;;;5002905;28;20241;-82
2021/04/13 02:21:11;;;;;;;5.72;4.32;;;3.50;1.00;;;;;;5004765;28;20227;-83
2021/04/13 02:23:44;;;;;;;5.00;4.53;;;3.50;1.00;;;;;;5011269;28;20210;-82
2021/04/13 02:26:14;;;;;;;5.45;4.53;;;3.40;1.00;;;;;;4987421;28;21329;-82
2021/04/13 02:28:44;;;;;;;5.28;4.60;;;3.40;1.00;;;;;;4995438;28;20237;-82
2021/04/13 02:31:14;;;;;;;6.00;5.10;;;3.40;1.00;;;;;;4980104;28;20564;-81
2021/04/13 02:33:45;;;;;;;5.03;4.60;;;3.40;1.00;;;;;;4997951;28;20284;-81
2021/04/13 02:36:18;;;;;;;5.00;4.30;;;3.40;1.00;;;;;;4992412;28;20223;-81
2021/04/13 02:38:53;;;;;;;6.05;5.20;;;3.40;1.00;;;;;;5008453;28;20211;-83
2021/04/13 02:41:28;;;;;;;6.80;5.30;;;3.30;1.00;;;;;;4983315;28;20801;-82
2021/04/13 02:44:05;;;;;;;6.53;5.60;;;3.30;1.00;;;;;;4997916;28;23666;-83
2021/04/13 02:46:34;;;;;;;6.57;6.00;;;3.30;1.00;;;;;;4981379;28;20249;-84
2021/04/13 02:49:05;;;;;;;6.43;5.70;;;3.30;1.00;;;;;;4998314;28;20226;-83
2021/04/13 02:51:34;;;;;;;6.07;5.57;;;3.30;1.00;;;;;;4985322;28;20223;-83
2021/04/13 02:54:02;;;;;;;6.82;5.35;;;3.30;1.00;;;;;;4997027;28;20292;-83
2021/04/13 02:56:33;;;;;;;6.90;5.60;;;3.20;1.00;;;;;;5022819;28;20223;-84
2021/04/13 02:59:25;;;;;;;6.07;5.47;;;3.20;1.00;;;;;;4998955;28;20263;-83
2021/04/13 03:02:00;;;;;;;6.53;5.35;;;3.20;1.00;;;;;;4993603;28;20219;-84
2021/04/13 03:04:29;;;;;;;6.40;5.80;;;3.20;1.00;;;;;;5005871;28;20306;-83
2021/04/13 03:06:59;;;;;;;10.88;6.25;;;3.20;1.00;;;;;;4992093;28;20273;-83
2021/04/13 03:09:28;;;;;;;6.97;6.05;;;3.10;1.00;;;;;;5008533;28;20207;-84
2021/04/13 03:11:58;;;;;;;7.10;6.40;;;3.20;1.00;;;;;;4992765;28;20223;-84
2021/04/13 03:14:26;;;;;;;7.35;5.93;;;3.10;1.00;;;;;;5008791;28;20236;-82
2021/04/13 03:16:58;;;;;;;7.10;6.30;;;3.10;1.00;;;;;;5005995;28;21093;-84
2021/04/13 03:19:27;;;;;;;7.97;6.32;;;3.10;1.00;;;;;;5044858;28;20219;-83
2021/04/13 03:22:03;;;;;;;6.25;5.60;;;3.10;1.00;;;;;;5005615;28;20578;-83
2021/04/13 03:24:35;;;;;;;7.10;6.40;;;3.00;1.00;;;;;;5050728;28;20226;-82
2021/04/13 03:27:06;;;;;;;8.95;7.25;;;3.00;1.00;;;;;;5010140;28;20324;-83
2021/04/13 03:29:44;;;;;;;6.78;6.10;;;3.00;1.00;;;;;;5018162;28;20223;-82
2021/04/13 03:32:13;;;;;;;8.80;6.45;;;3.00;1.00;;;;;;5008495;28;20243;-82
2021/04/13 03:34:41;;;;;;;6.43;5.82;;;3.00;1.00;;;;;;5013441;28;20238;-82
2021/04/13 03:37:12;;;;;;;7.15;6.45;;;3.00;1.00;;;;;;5016987;28;20334;-84
2021/04/13 03:39:42;;;;;;;7.78;6.95;;;2.90;1.00;;;;;;5011444;28;20314;-83
2021/04/13 03:42:18;;;;;;;7.07;6.38;;;2.90;1.00;;;;;;5048208;28;20261;-84
2021/04/13 03:44:51;;;;;;;8.95;7.22;;;2.90;1.00;;;;;;5013987;28;21371;-82
2021/04/13 03:47:21;;;;;;;16.63;13.40;;;2.90;1.00;;;;;;5011243;28;20235;-81
2021/04/13 03:49:52;;;;;;;10.20;9.05;;;2.90;1.00;;;;;;4998866;28;20211;-83
2021/04/13 03:52:27;;;;;;;12.32;8.32;;;2.90;1.00;;;;;;5039909;28;20219;-85
2021/04/13 03:55:14;;;;;;;16.02;14.23;;;2.90;1.00;;;;;;5007858;28;20293;-83
2021/04/13 03:57:41;;;;;;;18.85;17.05;;;2.80;1.00;;;;;;5008655;28;20222;-80
2021/04/13 04:00:13;;;;;;;20.23;17.70;;;2.90;1.00;;;;;;5042352;28;20874;-82
2021/04/13 04:02:40;;;;;;;20.15;16.77;;;2.90;1.00;;;;;;5009214;28;20227;-83
2021/04/13 04:05:11;;;;;;;16.75;14.98;;;2.80;1.00;;;;;;5022102;28;20246;-83
2021/04/13 04:07:58;;;;;;;10.52;9.50;;;2.80;1.00;;;;;;5009783;28;20235;-82
2021/04/13 04:10:49;;;;;;;11.80;10.55;;;2.80;1.00;;;;;;5004479;28;20219;-82
2021/04/13 04:13:26;;;;;;;8.30;7.28;;;2.70;1.00;;;;;;5040851;28;20250;-84
2021/04/13 04:16:07;;;;;;;10.73;9.27;;;2.70;1.00;;;;;;4992135;28;21927;-82
2021/04/13 04:18:38;;;;;;;15.07;9.00;;;2.70;1.00;;;;;;5005414;28;23171;-82
2021/04/13 04:21:33;;;;;;;9.20;7.72;;;2.80;1.00;;;;;;4992229;28;20739;-82
2021/04/13 04:24:07;;;;;;;11.00;7.75;;;2.80;1.00;;;;;;5028782;28;20329;-82
2021/04/13 04:26:40;;;;;;;10.57;7.50;;;2.80;1.00;;;;;;5006470;28;20239;-83
2021/04/13 04:29:37;;;;;;;10.65;7.60;;;2.80;1.00;;;;;;5004596;28;20227;-81
2021/04/13 04:32:22;;;;;;;11.98;8.40;;;2.70;1.00;;;;;;5005932;28;20227;-83
2021/04/13 04:34:54;;;;;;;10.82;7.85;;;2.80;1.00;;;;;;4995019;28;20719;-85
2021/04/13 04:37:29;;;;;;;9.48;7.97;;;2.80;1.00;;;;;;5005393;28;20224;-83
2021/04/13 04:40:24;;;;;;;8.55;7.65;;;2.80;1.00;;;;;;5002145;28;20230;-82
2021/04/13 04:43:00;;;;;;;10.50;7.90;;;2.80;1.00;;;;;;5037866;28;20218;-81
2021/04/13 04:45:38;;;;;;;9.77;8.75;;;2.80;1.00;;;;;;4998872;28;20242;-83
2021/04/13 04:48:35;;;;;;;10.45;7.35;;;2.80;1.00;;;;;;5006225;28;20367;-83
2021/04/13 04:51:05;;;;;;;9.93;8.00;;;2.80;1.00;;;;;;5031426;28;20226;-85
2021/04/13 04:53:33;;;;;;;8.48;7.53;;;2.80;1.00;;;;;;5023593;28;20219;-83
2021/04/13 04:56:06;;;;;;;9.23;7.60;;;2.80;1.00;;;;;;5012942;28;20242;-83
2021/04/13 04:58:37;;;;;;;10.82;8.13;;;2.80;1.00;;;;;;5030152;28;20413;-83
2021/04/13 05:01:19;;;;;;;9.30;8.25;;;2.90;1.00;;;;;;5047890;28;20233;-82
2021/04/13 05:03:49;;;;;;;9.65;8.63;;;3.00;1.00;;;;;;5027264;28;20227;-81
2021/04/13 05:06:23;;;;;;;10.70;9.35;;;3.00;1.00;;;;;;5014742;28;20241;-82
2021/04/13 05:08:55;;;;;;;9.57;7.70;;;3.00;1.00;;;;;;5030014;28;20219;-82
2021/04/13 05:11:26;;;;;;;14.98;9.20;;;3.00;1.00;;;;;;5013384;28;20346;-83
2021/04/13 05:13:53;;;;;;;11.20;9.95;;;3.00;1.00;;;;;;5048296;28;20238;-82
2021/04/13 05:16:20;;;;;;;12.40;10.85;;;3.00;1.00;;;;;;5041537;28;20354;-81
2021/04/13 05:18:48;;;;;;;12.85;10.35;;;3.00;1.00;;;;;;5011824;28;20243;-84
2021/04/13 05:21:18;;;;;;;13.27;11.88;;;3.00;1.00;;;;;;5011590;28;20218;-82
2021/04/13 05:23:46;;;;;;;14.07;11.32;;;3.10;1.00;;;;;;5026755;28;20223;-82
2021/04/13 05:26:13;;;;;;;15.00;10.60;;;3.10;1.00;;;;;;5064437;28;20223;-81
2021/04/13 05:28:39;;;;;;;12.35;11.13;;;3.10;1.00;;;;;;5021646;28;20222;-83
2021/04/13 05:31:08;;;;;;;11.70;10.43;;;3.30;1.00;;;;;;5032465;28;20289;-82
2021/04/13 05:33:37;;;;;;;12.30;10.80;;;3.30;1.00;;;;;;5028320;28;20445;-82
2021/04/13 05:36:08;;;;;;;14.32;11.30;;;3.30;1.00;;;;;;5044507;28;20231;-81
2021/04/13 05:38:40;;;;;;;10.82;9.20;;;3.30;1.00;;;;;;5021305;28;20231;-84
2021/04/13 05:41:12;;;;;;;14.10;12.60;;;3.30;1.00;;;;;;5016901;28;20230;-80
2021/04/13 05:43:39;;;;;;;12.25;10.95;;;3.40;1.00;;;;;;5004369;28;20211;-83
2021/04/13 05:46:14;;;;;;;13.57;11.45;;;3.50;1.00;;;;;;5014961;28;20304;-83
2021/04/13 05:48:41;;;;;;;13.15;10.55;;;3.70;1.00;;;;;;5022477;28;20223;-82
2021/04/13 05:51:08;;;;;;;16.27;10.40;;;3.80;1.00;;;;;;5031400;28;20231;-82
2021/04/13 05:53:35;;;;;;;11.60;10.40;;;3.80;1.00;;;;;;5008275;28;20211;-83
2021/04/13 05:56:03;;;;;;;11.13;9.98;;;3.90;1.00;;;;;;5010633;28;20259;-82
2021/04/13 05:58:34;;;;;;;11.30;10.18;;;3.90;1.00;;;;;;5016483;28;20227;-82
2021/04/13 06:01:09;;;;;;;14.10;10.65;;;4.00;1.00;;;;;;5019506;28;20260;-83
2021/04/13 06:03:36;;;;;;;13.38;10.55;;;4.10;1.00;;;;;;5032749;28;20231;-83
2021/04/13 06:06:06;;;;;;;10.65;9.60;;;4.20;1.00;;;;;;5005171;28;20233;-81
2021/04/13 06:08:34;;;;;;;11.95;10.45;;;4.30;1.00;;;;;;4999358;28;20934;-83
2021/04/13 06:11:00;;;;;;;10.32;9.20;;;4.30;1.00;;;;;;5005763;28;20304;-82
2021/04/13 06:13:28;;;;;;;11.95;10.70;;;4.30;1.00;;;;;;5001879;28;20211;-84
2021/04/13 06:15:56;;;;;;;12.45;10.25;;;4.30;1.00;;;;;;5009736;28;20286;-86
2021/04/13 06:18:23;;;;;;;12.02;10.40;;;4.40;1.00;;;;;;5004424;28;20238;-80
2021/04/13 06:20:51;;;;;;;12.13;9.68;;;4.50;1.00;;;;;;5003940;28;20278;-82
2021/04/13 06:23:23;;;;;;;10.75;9.60;;;4.50;1.00;;;;;;5033213;28;20227;-82
2021/04/13 06:25:50;;;;;;;11.90;9.90;;;4.50;1.00;;;;;;5024016;28;20339;-82
2021/04/13 06:28:17;;;;;;;15.85;9.68;;;4.50;1.00;;;;;;5008432;28;20246;-83
2021/04/13 06:30:48;;;;;;;13.65;9.18;;;4.50;1.00;;;;;;4995554;28;20234;-80
2021/04/13 06:33:16;;;;;;;10.48;9.27;;;4.60;1.00;;;;;;5003530;28;20333;-83
2021/04/13 06:35:45;;;;;;;13.43;9.18;;;4.60;1.00;;;;;;4998722;28;20247;-84
2021/04/13 06:38:16;;;;;;;10.60;9.50;;;4.70;1.00;;;;;;5010435;28;20234;-82
2021/04/13 06:41:15;;;;;;;10.90;8.00;;;4.80;1.00;;;;;;4996575;28;20230;-82
2021/04/13 06:44:09;;;;;;;7.82;6.88;;;4.80;1.00;;;;;;5011363;28;20231;-82
2021/04/13 06:46:48;;;;;;;7.90;7.10;;;4.90;1.00;;;;;;5011026;28;20237;-83
2021/04/13 06:49:30;;;;;;;11.15;7.25;;;5.00;1.00;;;;;;5019430;28;20370;-84
2021/04/13 06:52:11;;;;;;;11.90;8.40;;;5.10;1.00;;;;;;5037023;28;20238;-83
2021/04/13 06:54:42;;;;;;;9.57;7.30;;;5.10;1.00;;;;;;5003251;28;20231;-84
2021/04/13 06:57:28;;;;;;;12.48;6.70;;;5.20;1.00;;;;;;4999664;28;20286;-83
2021/04/13 07:00:19;;;;;;;13.43;7.53;;;5.30;1.00;;;;;;5039245;28;20227;-84
2021/04/13 07:03:23;;;;;;;17.48;9.23;;;5.40;1.00;;;;;;5015143;28;20313;-81
2021/04/13 07:05:54;;;;;;;7.68;6.70;;;5.60;1.00;;;;;;5016653;28;20211;-83
2021/04/13 07:08:33;;;;;;;9.50;6.50;;;5.60;1.00;;;;;;5026591;28;20290;-82
2021/04/13 07:11:04;;;;;;;11.32;6.78;;;5.70;1.00;;;;;;5015876;28;20229;-82
2021/04/13 07:13:39;;;;;;;12.23;7.80;;;5.70;1.00;;;;;;5028948;28;20238;-80
2021/04/13 07:16:15;;;;;;;8.00;7.10;;;5.70;1.00;;;;;;5046662;28;20204;-81
2021/04/13 07:18:51;;;;;;;7.55;6.10;;;5.90;1.00;;;;;;5026559;28;20223;-82
2021/04/13 07:21:24;;;;;;;7.78;5.78;;;6.10;1.00;;;;;;5016298;28;20651;-80
2021/04/13 07:23:55;;;;;;;9.70;7.38;;;6.10;1.00;;;;;;5026312;28;20282;-82
2021/04/13 07:26:31;;;;;;;7.80;6.57;;;6.10;1.00;;;;;;5020682;28;20215;-83
2021/04/13 07:29:21;;;;;;;10.10;7.00;;;6.20;1.00;;;;;;5024781;28;20266;-83
2021/04/13 07:31:59;;;;;;;9.02;7.10;;;6.20;1.00;;;;;;5016906;28;20234;-83
2021/04/13 07:34:25;;;;;;;11.75;7.18;;;6.40;1.00;;;;;;5015920;28;20662;-82
2021/04/13 07:37:01;;;;;;;11.20;7.25;;;6.60;1.00;;;;;;5005880;28;20226;-82
2021/04/13 07:39:32;;;;;;;10.93;6.45;;;6.70;1.00;;;;;;5018715;28;20238;-81
2021/04/13 07:42:07;;;;;;;11.25;6.10;;;6.90;1.00;;;;;;5012031;28;20241;-81
2021/04/13 07:44:45;;;;;;;7.03;5.93;;;7.20;1.00;;;;;;5026989;28;20290;-82
2021/04/13 07:47:48;;;;;;;7.00;5.20;;;7.30;1.00;;;;;;5007768;28;20229;-84
2021/04/13 07:50:39;;;;;;;13.82;7.00;;;7.40;1.00;;;;;;4947472;28;20233;-81
2021/04/13 07:53:17;;;;;;;8.98;6.00;;;7.40;1.00;;;;;;5010373;28;20426;-83
2021/04/13 07:55:52;;;;;;;7.03;5.65;;;7.50;1.00;;;;;;5012019;28;20283;-83
2021/04/13 07:58:31;;;;;;;19.80;6.45;;;7.60;1.00;;;;;;4992209;28;20285;-82
2021/04/13 08:00:59;;;;;;;5.45;4.18;;;7.50;1.00;;;;;;5003732;28;20302;-83
2021/04/13 08:03:32;;;;;;;9.02;5.38;;;7.50;1.00;;;;;;5031553;28;20279;-84
2021/04/13 08:06:00;;;;;;;6.85;5.45;;;7.60;1.00;;;;;;5005392;28;20250;-85
2021/04/13 08:08:30;;;;;;;7.28;5.07;;;7.70;1.00;;;;;;5001826;28;20301;-83
2021/04/13 08:11:11;;;;;;;6.60;5.30;;;7.80;1.00;;;;;;5012874;28;21818;-84
2021/04/13 08:13:40;;;;;;;5.03;4.53;;;7.90;1.00;;;;;;5003763;28;20267;-83
2021/04/13 08:16:07;;;;;;;10.43;6.78;;;8.00;1.00;;;;;;5025978;28;20706;-80
2021/04/13 08:18:41;;;;;;;8.65;6.10;;;8.00;1.00;;;;;;5003066;28;20208;-82
2021/04/13 08:21:23;;;;;;;7.68;5.00;;;8.20;1.00;;;;;;5007440;28;20210;-84
2021/04/13 08:23:51;;;;;;;6.65;4.68;;;8.30;1.00;;;;;;5002334;28;20223;-83
2021/04/13 08:26:35;;;;;;;6.25;4.60;;;8.20;1.00;;;;;;5013569;28;20231;-84
2021/04/13 08:29:13;;;;;;;6.13;4.10;;;8.10;1.00;;;;;;5007913;28;20239;-78
2021/04/13 08:34:50;;;;;;;5.03;4.30;;;8.30;1.00;;;;;;5005562;28;20222;-79
2021/04/13 08:37:39;;;;;;;7.53;5.15;;;8.40;1.00;;;;;;5022152;28;20241;-78
2021/04/13 08:40:20;;;;;;;7.70;4.00;;;8.50;1.00;;;;;;5040071;28;20326;-78
2021/04/13 08:42:55;;;;;;;11.35;8.32;;;8.80;1.00;;;;;;5028147;28;20539;-80
2021/04/13 08:45:30;;;;;;;7.32;3.72;;;8.90;1.00;;;;;;5013839;28;20242;-77
2021/04/13 08:48:02;;;;;;;6.90;4.55;;;9.10;1.00;;;;;;5031380;28;20301;-81
2021/04/13 08:50:36;;;;;;;7.15;4.00;;;9.40;1.00;;;;;;5013630;28;20265;-80
2021/04/13 08:53:05;;;;;;;4.25;3.70;;;9.50;1.00;;;;;;5018954;28;20223;-80
2021/04/13 08:55:47;;;;;;;9.63;4.63;;;9.60;1.00;;;;;;5025610;28;20238;-77
2021/04/13 08:58:33;;;;;;;5.15;3.35;;;9.90;1.00;;;;;;5028761;28;20336;-77
2021/04/13 09:01:00;;;;;;;6.50;3.97;;;9.90;1.00;;;;;;5018417;28;20226;-76
2021/04/13 09:03:41;;;;;;;4.35;3.20;;;10.00;1.00;;;;;;5022423;28;20237;-76
2021/04/13 09:06:11;;;;;;;7.45;4.70;;;10.00;1.00;;;;;;5011265;28;20243;-77
2021/04/13 09:08:51;;;;;;;4.20;3.63;;;10.00;1.00;;;;;;5012007;28;20224;-77
2021/04/13 09:11:27;;;;;;;4.65;4.25;;;10.20;1.00;;;;;;5018984;28;20234;-78
2021/04/13 09:14:03;;;;;;;5.95;3.92;;;9.70;1.00;;;;;;5008080;28;20223;-77
2021/04/13 09:16:32;;;;;;;6.38;4.85;;;9.30;1.00;;;;;;5011007;28;20348;-77
2021/04/13 09:19:03;;;;;;;5.43;4.70;;;9.30;1.00;;;;;;5010870;28;20216;-76
2021/04/13 09:21:39;;;;;;;7.28;6.53;;;9.60;1.00;;;;;;5016903;28;20308;-77
2021/04/13 09:24:14;;;;;;;7.40;4.20;;;9.60;1.00;;;;;;5027262;28;20245;-78
2021/04/13 09:26:54;;;;;;;6.50;4.85;;;9.50;1.00;;;;;;5017323;28;20240;-77
2021/04/13 09:29:39;;;;;;;5.38;4.88;;;9.40;1.00;;;;;;5009726;28;20313;-77
2021/04/13 09:32:07;;;;;;;5.85;5.35;;;9.40;1.00;;;;;;5008690;28;20235;-77
2021/04/13 09:34:59;;;;;;;5.60;5.07;;;9.60;1.00;;;;;;5000432;28;20231;-77
2021/04/13 09:37:41;;;;;;;7.40;4.47;;;10.30;1.00;;;;;;5008026;28;20278;-77
2021/04/13 09:40:31;;;;;;;5.10;4.30;;;12.10;1.00;;;;;;4999370;28;20418;-76
2021/04/13 09:43:23;;;;;;;7.00;5.97;;;12.40;1.00;;;;;;5000209;28;20462;-78
2021/04/13 09:46:00;;;;;;;6.33;4.87;;;13.90;1.00;;;;;;5006307;28;20440;-78
2021/04/13 09:48:51;;;;;;;3.40;2.50;;;15.20;1.00;;;;;;5013010;28;20461;-78
2021/04/13 09:51:24;;;;;;;4.43;3.10;;;15.40;1.00;;;;;;5019159;28;20435;-78
2021/04/13 09:54:16;;;;;;;4.10;2.60;;;15.70;1.00;;;;;;5024059;28;20798;-77
2021/04/13 09:57:11;;;;;;;4.23;3.20;;;15.00;1.00;;;;;;5010913;28;20443;-79
2021/04/13 10:00:06;;;;;;;10.63;3.27;;;13.80;1.00;;;;;;5019920;28;20431;-78
2021/04/13 10:02:49;;;;;;;4.10;3.10;;;12.60;1.00;;;;;;5013576;28;20434;-77
2021/04/13 10:05:28;;;;;;;9.20;3.83;;;13.00;1.00;;;;;;5046009;28;20435;-78
2021/04/13 10:07:59;;;;;;;7.83;3.40;;;14.50;1.00;;;;;;5008763;28;20472;-78
2021/04/13 10:10:30;;;;;;;3.90;3.37;;;13.80;1.00;;;;;;5008560;28;20451;-77
2021/04/13 10:13:35;;;;;;;5.70;2.70;;;13.70;1.00;;;;;;5011862;28;20415;-78
2021/04/13 10:16:09;;;;;;;4.20;3.23;;;13.70;1.00;;;;;;5017671;28;20430;-77
2021/04/13 10:18:58;;;;;;;6.43;3.57;;;12.90;1.00;;;;;;5021564;28;21117;-78
2021/04/13 10:21:51;;;;;;;11.40;4.17;;;12.00;1.00;;;;;;5002541;28;20644;-79
2021/04/13 10:24:46;;;;;;;8.60;3.30;;;12.30;1.00;;;;;;5002085;28;20454;-77
2021/04/13 10:27:46;;;;;;;6.97;4.33;;;14.00;1.00;;;;;;4992222;28;20872;-77
2021/04/13 10:30:37;;;;;;;5.63;4.10;;;14.60;1.00;;;;;;5005212;28;20519;-76
2021/04/13 10:33:24;;;;;;;7.63;3.60;;;14.10;1.00;;;;;;4988287;28;20448;-77
2021/04/13 10:36:15;;;;;;;5.20;4.37;;;13.10;1.00;;;;;;4995441;28;20571;-78
2021/04/13 10:39:24;;;;;;;6.67;3.37;;;12.70;1.00;;;;;;4995340;28;20961;-77
2021/04/13 10:42:35;;;;;;;4.20;3.30;;;12.80;1.00;;;;;;5003450;28;21246;-77
2021/04/13 10:45:39;;;;;;;10.43;4.13;;;12.80;1.00;;;;;;4995202;28;20510;-78
2021/04/13 10:48:42;;;;;;;7.43;3.23;;;13.50;1.00;;;;;;4982001;28;20457;-78
2021/04/13 10:51:41;;;;;;;12.30;3.27;;;13.80;1.00;;;;;;4996601;28;20733;-79
2021/04/13 10:54:40;;;;;;;7.00;4.13;;;13.10;1.00;;;;;;4999170;28;20460;-81
2021/04/13 10:57:41;;;;;;;4.47;3.87;;;12.30;1.00;;;;;;5006768;28;20450;-79
2021/04/13 11:00:26;;;;;;;5.67;2.70;;;12.50;1.00;;;;;;5011972;28;20467;-79
2021/04/13 11:03:25;;;;;;;6.90;3.23;;;12.30;1.00;;;;;;4998246;28;20455;-81
2021/04/13 11:06:28;;;;;;;5.53;3.30;;;11.40;1.00;;;;;;4981864;28;20553;-81
2021/04/13 11:09:19;;;;;;;4.63;3.80;;;10.80;1.00;;;;;;4994773;28;20432;-80
2021/04/13 11:12:21;;;;;;;5.97;3.37;;;10.60;1.00;;;;;;5035316;28;20259;-80
2021/04/13 11:15:25;;;;;;;12.57;5.13;;;11.50;1.00;;;;;;4985574;28;20452;-79
2021/04/13 11:17:59;;;;;;;5.80;3.60;;;13.90;1.00;;;;;;4986820;28;20465;-80
2021/04/13 11:20:48;;;;;;;4.73;2.80;;;15.60;1.00;;;;;;4984248;28;20447;-80
2021/04/13 11:23:53;;;;;;;4.43;2.67;;;17.90;1.00;;;;;;4991029;28;20437;-80
2021/04/13 11:27:09;;;;;;;2.70;2.47;;;19.50;1.00;;;;;;4998937;28;21388;-79
2021/04/13 11:30:12;;;;;;;3.77;2.50;;;20.80;1.00;;;;;;4985419;28;20838;-80
2021/04/13 11:33:13;;;;;;;6.70;2.90;;;20.00;1.00;;;;;;4995206;28;20635;-81
2021/04/13 11:35:42;;;;;;;6.03;3.00;;;17.90;1.00;;;;;;4991572;28;20467;-80
2021/04/13 11:38:48;;;;;;;4.43;2.30;;;16.20;1.00;;;;;;4993257;28;20445;-79
2021/04/13 11:41:32;;;;;;;5.97;2.43;;;17.50;1.00;;;;;;4999930;28;20428;-79
2021/04/13 11:44:02;;;;;;;7.40;2.63;;;19.90;1.00;;;;;;4993705;28;21100;-81
2021/04/13 11:46:47;;;;;;;5.77;2.70;;;20.90;1.00;;;;;;5023650;28;20452;-80
2021/04/13 11:49:20;;;;;;;4.80;2.67;;;19.40;1.00;;;;;;4997693;28;20508;-80
2021/04/13 11:51:56;;;;;;;4.43;2.07;;;17.30;1.00;;;;;;5000778;28;20422;-81
2021/04/13 11:54:47;;;;;;;3.30;2.03;;;15.40;1.00;;;;;;5002278;28;20446;-80
2021/04/13 11:57:23;;;;;;;5.20;3.10;;;14.40;1.00;;;;;;5014055;28;20414;-82
2021/04/13 12:00:25;;;;;;;3.77;2.10;;;13.80;1.00;;;;;;5015087;28;20581;-82
2021/04/13 12:03:35;;;;;;;9.40;2.80;;;13.80;1.00;;;;;;4998194;28;20481;-82
2021/04/13 12:06:12;;;;;;;10.80;3.60;;;15.50;1.00;;;;;;5016723;28;20439;-80
2021/04/13 12:08:47;;;;;;;5.00;2.77;;;16.30;1.00;;;;;;5013746;28;20426;-81
2021/04/13 12:11:42;;;;;;;4.20;1.93;;;15.70;1.00;;;;;;5004112;28;20445;-81
2021/04/13 12:14:30;;;;;;;4.00;1.83;;;14.40;1.00;;;;;;5000775;28;20449;-82
2021/04/13 12:17:06;;;;;;;4.77;1.80;;;13.30;1.00;;;;;;5000502;28;20462;-82
2021/04/13 12:19:32;;;;;;;6.60;2.30;;;12.70;1.00;;;;;;5008093;28;20504;-79
2021/04/13 12:22:01;;;;;;;2.80;1.47;;;13.20;1.00;;;;;;4998413;28;20443;-79
2021/04/13 12:24:52;;;;;;;4.33;2.63;;;14.60;1.00;;;;;;4995894;28;20488;-80
2021/04/13 12:27:42;;;;;;;2.80;1.60;;;15.60;1.00;;;;;;4995620;28;20482;-81
2021/04/13 12:30:29;;;;;;;4.73;2.20;;;15.40;1.00;;;;;;5011228;28;20446;-81
2021/04/13 12:32:56;;;;;;;7.00;1.90;;;15.20;1.00;;;;;;5001452;28;20460;-80
2021/04/13 12:35:56;;;;;;;3.73;2.17;;;15.50;1.00;;;;;;4994545;28;20469;-82
2021/04/13 12:38:58;;;;;;;6.00;2.23;;;15.80;1.00;;;;;;5008027;28;20453;-78
2021/04/13 12:41:29;;;;;;;5.53;2.27;;;17.60;1.00;;;;;;4961537;28;20430;-80
2021/04/13 12:43:59;;;;;;;6.63;1.90;;;19.40;1.00;;;;;;5005918;28;20468;-81
2021/04/13 12:46:40;;;;;;;4.07;1.83;;;19.70;1.00;;;;;;5004354;28;20465;-81
2021/04/13 12:49:20;;;;;;;4.13;1.50;;;18.90;1.00;;;;;;5010219;28;20432;-81
2021/04/13 12:51:53;;;;;;;4.70;2.20;;;17.60;1.00;;;;;;5014336;28;20547;-80
2021/04/13 12:54:37;;;;;;;5.73;2.50;;;16.20;1.00;;;;;;5012935;28;20423;-82
2021/04/13 12:57:11;;;;;;;4.40;2.07;;;14.80;1.00;;;;;;5009335;28;20444;-80
2021/04/13 12:59:38;;;;;;;4.07;2.70;;;14.10;1.00;;;;;;5011656;28;20403;-80
2021/04/13 13:02:07;;;;;;;2.97;1.90;;;13.40;1.00;;;;;;5020180;28;20442;-80
2021/04/13 13:04:41;;;;;;;7.33;5.77;;;13.20;1.00;;;;;;5036613;28;21009;-80
2021/04/13 13:07:21;;;;;;;7.23;2.30;;;13.10;1.00;;;;;;5005813;28;20446;-83
2021/04/13 13:09:51;;;;;;;6.07;3.00;;;14.00;1.00;;;;;;5000496;28;20439;-83
2021/04/13 13:12:19;;;;;;;3.87;2.30;;;15.90;1.00;;;;;;5003286;28;21405;-82
2021/04/13 13:14:48;;;;;;;3.87;1.80;;;17.80;1.00;;;;;;5003673;28;21014;-82
2021/04/13 13:17:21;;;;;;;4.63;1.73;;;18.50;1.00;;;;;;5000927;28;21282;-80
2021/04/13 13:19:57;;;;;;;5.13;1.83;;;19.70;1.00;;;;;;5004474;28;20446;-81
2021/04/13 13:22:26;;;;;;;4.20;2.00;;;21.20;1.00;;;;;;5005902;28;21601;-81
2021/04/13 13:24:54;;;;;;;2.60;2.10;;;21.20;1.00;;;;;;5037976;28;20443;-83
2021/04/13 13:27:28;;;;;;;5.40;3.07;;;20.00;1.00;;;;;;5015963;28;20474;-85
2021/04/13 13:30:01;;;;;;;4.90;2.60;;;18.20;1.00;;;;;;5000945;28;20496;-80
2021/04/13 13:32:30;;;;;;;3.30;1.83;;;16.50;1.00;;;;;;5044010;28;20452;-80
2021/04/13 13:35:04;;;;;;;4.43;2.67;;;15.40;1.00;;;;;;5040546;28;20498;-82
2021/04/13 13:37:35;;;;;;;5.20;2.43;;;14.70;1.00;;;;;;5004011;28;20430;-82
2021/04/13 13:40:05;;;;;;;5.07;2.93;;;15.00;1.00;;;;;;5002094;28;20459;-81
2021/04/13 13:42:32;;;;;;;4.10;2.10;;;16.80;1.00;;;;;;5007586;28;20445;-81
2021/04/13 13:45:01;;;;;;;2.67;1.70;;;18.50;1.00;;;;;;5004843;28;20469;-80
2021/04/13 13:47:37;;;;;;;2.37;2.10;;;19.40;1.00;;;;;;5046860;28;20452;-78
2021/04/13 13:50:07;;;;;;;5.63;2.83;;;19.00;1.00;;;;;;5003893;28;20504;-79
2021/04/13 13:52:50;;;;;;;4.67;2.30;;;19.10;1.00;;;;;;5003795;28;20450;-81
2021/04/13 13:55:23;;;;;;;5.37;2.17;;;19.80;1.00;;;;;;5022249;28;21062;-81
2021/04/13 13:58:02;;;;;;;11.30;3.27;;;20.30;1.00;;;;;;5008268;28;20679;-80